Time;durP1;ratioP1;P1;durP2;ratioP2;P2;SDS_P1;SDS_P2;PMS_P1;PMS_P2;Temp;Humidity;BMP_temperature;BMP_pressure;BME280_temperature;BME280_humidity;BME280_pressure;Samples;Min_cycle;Max_cycle;Signal;HPM_P1;HPM_P2
2023/06/15 00:01:50;;;;;;;9.50;5.70;;;;;;;18.54;100.00;99516.96;108530;1251;68370;-67
2023/06/15 00:04:18;;;;;;;7.50;6.70;;;;;;;18.42;100.00;99513.83;108560;1251;72434;-67
2023/06/15 00:06:45;;;;;;;;;;;;;;;18.36;100.00;99513.77;108487;1251;60786;-67
2023/06/15 00:09:13;;;;;;;11.50;5.90;;;;;;;18.47;100.00;99513.79;108442;1251;59354;-67
2023/06/15 00:11:41;;;;;;;11.20;5.50;;;;;;;18.48;100.00;99514.90;108406;1251;74141;-67
2023/06/15 00:14:08;;;;;;;;;;;;;;;18.46;100.00;99518.77;108412;1252;68244;-67
2023/06/15 00:16:41;;;;;;;7.90;5.30;;;;;;;18.40;100.00;99519.27;108418;1251;71958;-67
2023/06/15 00:19:09;;;;;;;7.40;6.00;;;;;;;18.34;100.00;99516.02;108465;1252;61823;-66
2023/06/15 00:21:41;;;;;;;8.90;5.80;;;;;;;18.38;100.00;99518.75;108484;1253;60554;-66
2023/06/15 00:24:09;;;;;;;11.80;5.70;;;;;;;18.41;100.00;99519.56;108486;1251;74464;-68
2023/06/15 00:26:37;;;;;;;8.60;5.70;;;;;;;18.41;100.00;99514.25;108559;1251;69708;-68
2023/06/15 00:29:05;;;;;;;11.00;6.10;;;;;;;18.44;100.00;99510.44;108612;1251;72539;-67
2023/06/15 00:31:34;;;;;;;;;;;;;;;18.45;100.00;99507.20;108513;1254;61484;-68
2023/06/15 00:34:02;;;;;;;8.10;5.90;;;;;;;18.43;100.00;99509.48;108577;1251;59522;-66
2023/06/15 00:36:30;;;;;;;;;;;;;;;18.41;100.00;99513.19;108673;1251;73081;-66
2023/06/15 00:38:58;;;;;;;9.10;6.00;;;;;;;18.41;100.00;99517.42;108507;1251;70153;-66
2023/06/15 00:41:27;;;;;;;8.60;6.40;;;;;;;18.46;100.00;99517.39;108494;1251;72634;-67
2023/06/15 00:43:54;;;;;;;9.80;5.60;;;;;;;18.50;100.00;99517.26;108473;1250;61736;-66
2023/06/15 00:46:22;;;;;;;10.80;5.50;;;;;;;18.55;100.00;99513.52;108531;1251;60080;-66
2023/06/15 00:48:50;;;;;;;8.70;5.90;;;;;;;18.54;100.00;99514.35;108493;1251;73361;-66
2023/06/15 00:51:18;;;;;;;12.70;6.00;;;;;;;18.54;100.00;99515.20;108348;1251;69668;-66
2023/06/15 00:53:45;;;;;;;8.00;5.70;;;;;;;18.59;100.00;99513.91;108489;1254;72522;-66
2023/06/15 00:56:16;;;;;;;9.90;5.90;;;;;;;18.64;100.00;99513.12;108508;1251;61442;-66
2023/06/15 00:58:44;;;;;;;10.40;6.00;;;;;;;18.66;100.00;99515.27;108375;1251;58774;-66
2023/06/15 01:01:12;;;;;;;12.30;5.90;;;;;;;18.70;100.00;99515.18;108450;1251;72867;-66
2023/06/15 01:03:40;;;;;;;12.10;5.80;;;;;;;18.68;100.00;99514.62;108649;1250;69410;-67
2023/06/15 01:06:13;;;;;;;12.00;6.00;;;;;;;18.70;100.00;99511.63;108486;1251;71674;-65
2023/06/15 01:08:40;;;;;;;10.10;6.00;;;;;;;18.70;100.00;99512.35;108447;1251;60627;-65
2023/06/15 01:11:08;;;;;;;10.90;5.40;;;;;;;18.69;100.00;99513.27;108380;1250;59671;-66
2023/06/15 01:13:36;;;;;;;6.80;5.60;;;;;;;18.65;100.00;99506.85;108699;1250;73621;-66
2023/06/15 01:16:06;;;;;;;;;;;;;;;18.64;100.00;99508.34;108694;1251;69174;-66
2023/06/15 01:18:34;;;;;;;6.60;5.90;;;;;;;18.62;100.00;99503.21;108579;1252;73316;-66
2023/06/15 01:21:02;;;;;;;8.90;6.30;;;;;;;18.61;100.00;99504.13;108586;1250;61464;-67
2023/06/15 01:23:44;;;;;;;12.90;6.60;;;;;;;18.61;100.00;99505.73;108316;1251;59779;-65
2023/06/15 01:26:12;;;;;;;7.40;6.00;;;;;;;18.62;100.00;99505.88;108366;1251;74606;-69
2023/06/15 01:28:41;;;;;;;;;;;;;;;18.55;100.00;99505.70;108618;1253;70162;-66
2023/06/15 01:31:10;;;;;;;10.70;6.20;;;;;;;18.46;100.00;99502.79;108594;1251;71757;-66
2023/06/15 01:33:50;;;;;;;10.60;6.60;;;;;;;18.41;100.00;99500.59;108424;1251;62474;-66
2023/06/15 01:36:18;;;;;;;15.50;7.00;;;;;;;18.38;100.00;99500.46;108551;1250;59770;-65
2023/06/15 01:38:48;;;;;;;8.30;6.20;;;;;;;18.38;100.00;99499.89;108566;1251;74440;-65
2023/06/15 01:41:17;;;;;;;9.40;6.10;;;;;;;18.43;100.00;99498.46;108436;1250;70135;-65
2023/06/15 01:43:45;;;;;;;11.20;5.90;;;;;;;18.37;100.00;99498.57;108542;1251;72306;-65
2023/06/15 01:46:15;;;;;;;14.80;6.30;;;;;;;18.38;100.00;99500.96;108232;1253;61497;-66
2023/06/15 01:48:43;;;;;;;8.80;6.20;;;;;;;18.35;100.00;99496.64;108401;1251;60138;-66
2023/06/15 01:51:11;;;;;;;12.40;6.50;;;;;;;18.24;100.00;99495.84;108365;1253;74108;-65
2023/06/15 01:53:38;;;;;;;11.20;6.50;;;;;;;18.15;100.00;99497.23;108154;1251;69058;-66
2023/06/15 01:56:06;;;;;;;6.90;6.10;;;;;;;18.15;100.00;99499.92;108488;1250;72371;-65
2023/06/15 01:58:34;;;;;;;10.10;5.90;;;;;;;18.12;100.00;99499.98;108366;1251;61365;-65
2023/06/15 02:01:02;;;;;;;8.50;6.10;;;;;;;18.16;100.00;99498.75;108529;1250;59821;-65
2023/06/15 02:03:31;;;;;;;6.10;5.50;;;;;;;18.15;100.00;99496.74;108625;1251;73801;-65
2023/06/15 02:05:58;;;;;;;12.30;6.40;;;;;;;18.13;100.00;99496.71;108578;1252;68299;-65
2023/06/15 02:08:26;;;;;;;6.90;5.80;;;;;;;18.18;100.00;99497.50;108661;1251;72896;-65
2023/06/15 02:10:54;;;;;;;9.90;6.30;;;;;;;18.23;100.00;99497.36;108531;1254;61364;-65
2023/06/15 02:13:21;;;;;;;10.60;6.00;;;;;;;18.27;100.00;99498.08;108495;1251;60658;-65
2023/06/15 02:15:50;;;;;;;7.30;5.70;;;;;;;18.30;100.00;99495.73;108506;1251;73703;-65
2023/06/15 02:18:18;;;;;;;12.40;6.30;;;;;;;18.41;100.00;99497.34;108627;1251;69337;-66
2023/06/15 02:20:46;;;;;;;;;;;;;;;18.51;100.00;99496.09;108622;1251;72498;-65
2023/06/15 02:23:14;;;;;;;10.70;6.30;;;;;;;18.56;100.00;99501.37;108518;1254;61503;-65
2023/06/15 02:25:41;;;;;;;8.30;5.40;;;;;;;18.61;100.00;99500.27;108631;1251;60070;-65
2023/06/15 02:28:09;;;;;;;10.40;5.80;;;;;;;18.65;100.00;99497.44;108629;1251;73672;-66
2023/06/15 02:30:38;;;;;;;7.00;5.60;;;;;;;18.72;100.00;99500.63;108610;1251;69576;-65
2023/06/15 02:33:07;;;;;;;7.90;6.20;;;;;;;18.77;100.00;99500.41;108438;1252;72361;-65
2023/06/15 02:35:36;;;;;;;11.30;5.60;;;;;;;18.85;100.00;99493.41;108452;1254;61368;-65
2023/06/15 02:38:03;;;;;;;10.30;5.90;;;;;;;18.95;100.00;99493.19;108664;1251;60082;-65
2023/06/15 02:40:31;;;;;;;;;;;;;;;18.95;100.00;99492.82;108588;1251;72436;-65
2023/06/15 02:42:59;;;;;;;8.10;5.20;;;;;;;18.97;100.00;99493.86;108528;1254;69216;-65
2023/06/15 02:45:27;;;;;;;6.30;5.70;;;;;;;19.00;100.00;99491.85;108301;1251;71493;-65
2023/06/15 02:47:56;;;;;;;15.20;6.00;;;;;;;19.00;100.00;99492.92;108514;1251;61472;-64
2023/06/15 02:50:24;;;;;;;11.90;6.30;;;;;;;19.07;100.00;99494.70;108383;1250;59656;-64
2023/06/15 02:53:00;;;;;;;7.40;5.80;;;;;;;19.08;100.00;99497.27;108317;1251;74082;-65
2023/06/15 02:55:28;;;;;;;;;;;;;;;19.20;100.00;99494.23;108517;1251;69708;-66
2023/06/15 02:57:56;;;;;;;9.00;6.70;;;;;;;19.25;100.00;99492.88;108337;1251;73212;-66
2023/06/15 03:00:49;;;;;;;6.90;5.70;;;;;;;19.30;100.00;99487.64;108499;1251;61393;-66
2023/06/15 03:03:27;;;;;;;15.00;6.70;;;;;;;19.40;100.00;99485.30;108557;1253;59755;-66
2023/06/15 03:05:58;;;;;;;8.10;5.40;;;;;;;19.40;100.00;99486.71;108630;1251;74094;-66
2023/06/15 03:08:31;;;;;;;10.40;6.00;;;;;;;19.41;100.00;99482.16;108662;1251;69253;-66
2023/06/15 03:11:10;;;;;;;9.10;6.00;;;;;;;19.44;100.00;99481.70;108626;1251;72492;-66
2023/06/15 03:13:38;;;;;;;8.90;5.50;;;;;;;19.47;100.00;99483.29;108634;1251;61508;-66
2023/06/15 03:16:07;;;;;;;8.40;5.80;;;;;;;19.55;100.00;99486.02;108553;1251;60254;-66
2023/06/15 03:18:35;;;;;;;9.80;6.70;;;;;;;19.57;100.00;99485.98;108628;1250;73673;-66
2023/06/15 03:21:07;;;;;;;8.60;5.60;;;;;;;19.62;100.00;99488.98;108518;1251;69375;-65
2023/06/15 03:23:38;;;;;;;9.80;5.60;;;;;;;19.67;100.00;99489.67;108506;1253;72416;-66
2023/06/15 03:26:06;;;;;;;9.60;5.90;;;;;;;19.69;100.00;99488.53;108611;1254;61529;-66
2023/06/15 03:28:38;;;;;;;8.30;5.80;;;;;;;19.74;100.00;99488.89;108500;1253;60153;-66
2023/06/15 03:31:07;;;;;;;8.70;5.40;;;;;;;19.82;100.00;99487.14;107910;1251;73704;-66
2023/06/15 03:33:36;;;;;;;10.00;5.90;;;;;;;19.84;100.00;99485.41;108662;1251;69491;-67
2023/06/15 03:36:05;;;;;;;8.10;5.90;;;;;;;19.91;100.00;99484.66;108658;1251;72492;-67
2023/06/15 03:38:34;;;;;;;8.70;5.90;;;;;;;19.96;100.00;99483.02;108535;1253;61367;-67
2023/06/15 03:41:02;;;;;;;9.00;6.00;;;;;;;20.04;100.00;99484.08;108517;1251;60758;-66
2023/06/15 03:43:29;;;;;;;9.40;6.70;;;;;;;20.05;100.00;99482.90;108527;1251;73668;-64
2023/06/15 03:45:57;;;;;;;10.60;5.50;;;;;;;20.14;100.00;99487.71;108325;1250;69955;-63
2023/06/15 03:48:25;;;;;;;;;;;;;;;20.15;100.00;99487.95;108320;1251;72964;-64
2023/06/15 03:50:53;;;;;;;7.00;5.50;;;;;;;20.15;100.00;99490.77;108425;1254;61824;-63
2023/06/15 03:53:21;;;;;;;7.50;5.80;;;;;;;20.16;100.00;99490.52;108555;1251;60166;-63
2023/06/15 03:55:48;;;;;;;;;;;;;;;20.18;100.00;99488.73;108570;1251;74041;-63
2023/06/15 03:58:17;;;;;;;10.30;6.00;;;;;;;20.20;100.00;99488.35;108410;1253;69086;-63
2023/06/15 04:00:47;;;;;;;7.00;6.10;;;;;;;20.20;100.00;99488.58;108636;1251;72158;-64
2023/06/15 04:03:17;;;;;;;9.10;5.90;;;;;;;20.26;100.00;99488.10;108460;1251;61386;-65
2023/06/15 04:05:45;;;;;;;8.30;6.20;;;;;;;20.34;100.00;99490.06;108580;1251;60828;-64
2023/06/15 04:08:13;;;;;;;14.20;7.00;;;;;;;20.41;100.00;99491.95;108625;1251;74067;-64
2023/06/15 04:10:41;;;;;;;7.70;6.40;;;;;;;20.48;100.00;99492.91;108664;1251;69152;-65
2023/06/15 04:13:08;;;;;;;8.60;6.30;;;;;;;20.54;100.00;99493.81;108600;1251;72950;-66
2023/06/15 04:15:37;;;;;;;10.60;6.80;;;;;;;20.60;100.00;99494.05;108386;1251;61765;-63
2023/06/15 04:18:05;;;;;;;12.90;7.20;;;;;;;20.70;100.00;99491.25;108358;1251;60067;-63
2023/06/15 04:20:32;;;;;;;;;;;;;;;20.78;100.00;99491.27;108525;1251;73601;-63
2023/06/15 04:23:01;;;;;;;12.80;7.00;;;;;;;20.85;100.00;99490.69;108537;1251;69116;-65
2023/06/15 04:25:28;;;;;;;9.70;6.50;;;;;;;20.91;100.00;99489.42;108344;1251;72786;-65
2023/06/15 04:27:57;;;;;;;11.20;6.80;;;;;;;21.00;100.00;99487.77;108354;1251;61743;-65
2023/06/15 04:30:25;;;;;;;10.10;7.20;;;;;;;21.08;100.00;99478.86;108626;1251;60069;-65
2023/06/15 04:32:59;;;;;;;9.60;6.50;;;;;;;21.16;100.00;99478.23;108654;1251;74086;-65
2023/06/15 04:35:34;;;;;;;12.70;6.70;;;;;;;21.24;100.00;99479.17;108538;1252;69575;-65
2023/06/15 04:38:07;;;;;;;9.60;6.90;;;;;;;21.31;100.00;99476.09;108522;1256;72296;-64
2023/06/15 04:40:37;;;;;;;11.20;6.00;;;;;;;21.40;100.00;99479.16;108549;1253;62394;-65
2023/06/15 04:43:05;;;;;;;10.10;6.70;;;;;;;21.49;100.00;99479.61;108532;1252;58695;-64
2023/06/15 04:45:35;;;;;;;11.20;5.90;;;;;;;21.56;100.00;99479.33;108524;1253;73695;-65
2023/06/15 04:48:03;;;;;;;8.10;6.20;;;;;;;21.65;100.00;99479.59;108354;1251;69147;-65
2023/06/15 04:50:31;;;;;;;8.90;6.00;;;;;;;21.76;100.00;99477.92;108544;1251;72330;-66
2023/06/15 04:52:59;;;;;;;8.20;6.20;;;;;;;21.90;100.00;99476.02;108399;1251;61393;-65
2023/06/15 04:55:27;;;;;;;8.30;5.80;;;;;;;22.02;100.00;99478.15;108442;1251;59787;-65
2023/06/15 04:57:55;;;;;;;7.50;5.30;;;;;;;22.06;100.00;99475.09;108533;1251;73685;-64
2023/06/15 05:00:23;;;;;;;11.50;5.60;;;;;;;22.13;100.00;99478.70;108475;1251;69407;-65
2023/06/15 05:02:56;;;;;;;11.80;6.00;;;;;;;22.23;100.00;99478.88;108489;1251;73344;-65
2023/06/15 05:05:24;;;;;;;8.70;5.20;;;;;;;22.29;100.00;99475.44;108500;1251;61413;-64
2023/06/15 05:07:51;;;;;;;14.10;7.00;;;;;;;22.35;100.00;99477.95;108614;1251;59746;-65
2023/06/15 05:10:19;;;;;;;7.80;5.90;;;;;;;22.44;100.00;99476.03;108675;1251;74477;-66
2023/06/15 05:13:07;;;;;;;11.30;5.50;;;;;;;22.49;100.00;99480.56;108537;1252;68564;-64
2023/06/15 05:15:35;;;;;;;11.00;6.10;;;;;;;22.55;100.00;99482.11;108551;1251;72480;-65
2023/06/15 05:18:04;;;;;;;;;;;;;;;22.62;100.00;99480.95;108512;1254;62469;-66
2023/06/15 05:20:32;;;;;;;11.70;5.00;;;;;;;22.70;100.00;99485.02;108600;1251;59762;-65
2023/06/15 05:23:00;;;;;;;6.50;4.60;;;;;;;22.82;100.00;99480.30;108617;1251;73701;-64
2023/06/15 05:25:28;;;;;;;6.80;5.20;;;;;;;22.85;100.00;99480.52;108518;1251;69397;-64
2023/06/15 05:27:55;;;;;;;8.40;5.30;;;;;;;22.88;100.00;99475.54;108637;1251;72488;-64
2023/06/15 05:30:26;;;;;;;6.30;4.90;;;;;;;22.99;100.00;99476.10;108492;1254;61001;-65
2023/06/15 05:32:55;;;;;;;7.30;4.70;;;;;;;23.11;100.00;99478.38;108526;1251;60203;-65
2023/06/15 05:35:22;;;;;;;8.00;4.70;;;;;;;23.16;100.00;99477.67;108588;1251;73031;-65
2023/06/15 05:37:50;;;;;;;7.10;4.60;;;;;;;23.23;100.00;99479.02;108644;1255;68566;-65
2023/06/15 05:40:18;;;;;;;8.60;4.50;;;;;;;23.32;100.00;99479.55;108490;1251;72232;-68
2023/06/15 05:42:46;;;;;;;9.40;4.60;;;;;;;23.43;100.00;99472.77;108636;1251;61821;-67
2023/06/15 05:45:14;;;;;;;;;;;;;;;23.47;100.00;99475.01;108506;1250;60681;-67
2023/06/15 05:47:44;;;;;;;7.80;4.00;;;;;;;23.56;100.00;99472.88;108405;1256;72685;-65
2023/06/15 05:50:12;;;;;;;11.50;5.00;;;;;;;23.63;100.00;99477.77;108389;1252;68303;-67
2023/06/15 05:52:40;;;;;;;5.10;4.20;;;;;;;23.67;100.00;99475.84;108412;1251;72964;-67
2023/06/15 05:55:08;;;;;;;16.30;4.50;;;;;;;23.80;100.00;99475.52;108333;1251;61485;-67
2023/06/15 05:57:36;;;;;;;11.20;3.80;;;;;;;23.92;100.00;99476.44;108570;1251;60741;-67
2023/06/15 06:00:05;;;;;;;8.80;3.80;;;;;;;24.02;100.00;99476.99;108392;1251;72694;-67
2023/06/15 06:02:41;;;;;;;13.30;4.00;;;;;;;24.10;100.00;99477.11;108605;1251;69063;-68
2023/06/15 06:05:11;;;;;;;7.80;3.70;;;;;;;24.20;100.00;99475.46;108465;1254;72828;-67
2023/06/15 06:07:39;;;;;;;10.70;3.20;;;;;;;24.28;100.00;99476.02;108557;1251;61469;-67
2023/06/15 06:10:08;;;;;;;5.80;3.50;;;;;;;24.41;100.00;99480.75;108564;1250;59945;-67
2023/06/15 06:12:38;;;;;;;8.30;3.80;;;;;;;24.49;100.00;99476.40;108508;1251;73660;-66
2023/06/15 06:15:06;;;;;;;7.60;2.80;;;;;;;24.55;100.00;99481.20;108587;1253;68468;-64
2023/06/15 06:20:00;;;;;;;5.50;3.10;;;;;;;24.31;100.00;99479.96;103759;1292;601627;-64
2023/06/15 06:22:28;;;;;;;6.90;3.10;;;;;;;24.66;100.00;99479.30;104620;1269;59835;-64
2023/06/15 06:24:56;;;;;;;;;;;;;;;24.72;100.00;99479.33;103651;1278;59689;-64
2023/06/15 06:27:24;;;;;;;;;;;;;;;24.80;100.00;99474.99;103495;1276;71807;-64
2023/06/15 06:29:51;;;;;;;3.20;2.80;;;;;;;24.88;100.00;99478.40;103726;1270;70015;-64
2023/06/15 06:32:20;;;;;;;4.70;3.10;;;;;;;24.94;100.00;99478.36;103766;1270;73014;-65
2023/06/15 06:34:47;;;;;;;4.50;2.90;;;;;;;25.01;100.00;99476.63;103828;1273;154533;-65
2023/06/15 06:37:15;;;;;;;8.70;2.70;;;;;;;25.11;100.00;99477.60;104037;1269;59343;-64
2023/06/15 06:39:43;;;;;;;6.00;2.50;;;;;;;25.17;100.00;99473.52;104046;1268;71516;-65
2023/06/15 06:42:11;;;;;;;5.50;2.80;;;;;;;25.25;100.00;99477.05;103762;1277;70318;-64
2023/06/15 06:44:40;;;;;;;7.70;2.60;;;;;;;25.35;100.00;99474.39;104097;1267;73441;-64
2023/06/15 06:47:07;;;;;;;6.00;3.10;;;;;;;25.37;100.00;99475.40;106123;1263;59657;-63
2023/06/15 06:49:35;;;;;;;5.70;3.00;;;;;;;25.39;100.00;99473.22;106972;1261;59737;-64
2023/06/15 06:52:04;;;;;;;4.40;2.60;;;;;;;25.48;100.00;99463.98;104563;1268;73076;-63
2023/06/15 06:54:31;;;;;;;3.20;2.20;;;;;;;25.53;100.00;99461.11;104542;1268;69174;-64
2023/06/15 06:57:00;;;;;;;5.30;2.60;;;;;;;25.58;100.00;99462.21;103929;1267;72897;-63
2023/06/15 06:59:29;;;;;;;8.40;3.10;;;;;;;25.58;100.00;99458.73;104898;1258;60682;-65
2023/06/15 07:02:10;;;;;;;7.40;2.60;;;;;;;25.64;100.00;99463.33;104363;1260;59805;-66
2023/06/15 07:04:38;;;;;;;5.30;2.50;;;;;;;25.72;100.00;99458.16;104333;1260;73406;-64
2023/06/15 07:07:06;;;;;;;6.50;3.10;;;;;;;25.73;100.00;99455.52;104232;1277;69227;-64
2023/06/15 07:09:34;;;;;;;9.10;2.70;;;;;;;25.78;100.00;99454.32;104255;1276;72529;-64
2023/06/15 07:12:02;;;;;;;5.50;2.90;;;;;;;25.81;100.00;99455.86;104408;1255;60764;-64
2023/06/15 07:14:30;;;;;;;5.40;2.80;;;;;;;25.91;100.00;99458.04;104503;1260;59502;-66
2023/06/15 07:17:00;;;;;;;4.30;2.70;;;;;;;25.98;100.00;99458.88;104252;1261;72888;-67
2023/06/15 07:19:31;;;;;;;7.20;2.80;;;;;;;26.13;100.00;99459.27;104125;1257;72086;-64
2023/06/15 07:21:59;;;;;;;9.90;2.90;;;;;;;26.23;100.00;99457.45;108105;1257;72461;-65
2023/06/15 07:24:27;;;;;;;7.60;3.30;;;;;;;26.30;100.00;99459.48;108293;1254;60412;-64
2023/06/15 07:26:56;;;;;;;9.20;3.30;;;;;;;26.36;100.00;99460.28;108626;1250;59639;-64
2023/06/15 07:29:25;;;;;;;3.90;2.40;;;;;;;26.37;100.00;99458.52;108536;1251;72887;-65
2023/06/15 07:31:53;;;;;;;6.70;3.20;;;;;;;26.43;100.00;99458.58;108545;1250;69531;-66
2023/06/15 07:34:20;;;;;;;6.10;3.20;;;;;;;26.55;100.00;99456.88;108614;1251;72425;-70
2023/06/15 07:36:48;;;;;;;6.10;3.10;;;;;;;26.60;100.00;99450.56;108523;1254;59840;-65
2023/06/15 07:39:18;;;;;;;4.30;2.60;;;;;;;26.61;100.00;99449.96;108541;1250;60786;-65
2023/06/15 07:41:46;;;;;;;4.20;2.50;;;;;;;26.70;100.00;99448.61;108623;1251;73215;-66
2023/06/15 07:44:15;;;;;;;5.40;2.80;;;;;;;26.84;100.00;99449.86;108632;1249;69110;-64
2023/06/15 07:46:43;;;;;;;6.00;2.70;;;;;;;27.00;100.00;99448.20;108483;1251;72348;-65
2023/06/15 07:49:11;;;;;;;7.20;3.00;;;;;;;27.09;99.60;99448.42;108470;1251;60371;-67
2023/06/15 07:51:39;;;;;;;9.20;2.70;;;;;;;27.11;99.82;99444.07;108421;1250;58730;-64
2023/06/15 07:54:20;;;;;;;6.50;3.50;;;;;;;27.09;100.00;99441.63;108451;1251;72873;-64
2023/06/15 07:56:48;;;;;;;11.80;3.30;;;;;;;27.09;99.67;99441.79;108512;1251;70114;-65
2023/06/15 07:59:16;;;;;;;9.50;4.10;;;;;;;27.10;100.00;99441.52;108484;1251;72446;-64
2023/06/15 08:01:44;;;;;;;9.20;3.30;;;;;;;27.26;100.00;99442.95;108488;1251;60060;-64
2023/06/15 08:04:14;;;;;;;7.20;3.50;;;;;;;27.38;100.00;99442.41;108480;1249;59680;-66
2023/06/15 08:06:45;;;;;;;12.30;3.20;;;;;;;27.33;99.91;99448.91;108524;1255;72798;-65
2023/06/15 08:09:13;;;;;;;5.70;3.20;;;;;;;27.25;100.00;99448.45;108402;1251;69211;-64
2023/06/15 08:11:40;;;;;;;;;;;;;;;27.18;100.00;99450.27;108584;1254;72433;-66
2023/06/15 08:14:08;;;;;;;3.60;3.30;;;;;;;27.17;100.00;99447.66;108424;1254;59765;-64
2023/06/15 08:16:35;;;;;;;8.50;4.20;;;;;;;27.19;100.00;99447.29;108496;1250;59713;-66
2023/06/15 08:19:03;;;;;;;5.50;3.00;;;;;;;27.21;100.00;99449.19;108428;1249;72883;-66
2023/06/15 08:21:32;;;;;;;;;;;;;;;27.16;100.00;99445.98;108515;1251;69105;-66
2023/06/15 08:24:11;;;;;;;4.70;2.70;;;;;;;27.10;100.00;99446.91;108415;1251;73397;-66
2023/06/15 08:29:29;;;;;;;4.30;3.20;;;;;;;27.06;100.00;99450.27;101648;1297;601429;-68
2023/06/15 08:31:58;;;;;;;4.20;3.10;;;;;;;26.97;100.00;99442.79;103873;1267;59922;-65
2023/06/15 08:34:25;;;;;;;6.20;3.30;;;;;;;26.96;100.00;99442.53;104380;1265;60321;-66
2023/06/15 08:36:53;;;;;;;6.00;2.80;;;;;;;26.86;100.00;99444.46;103669;1266;72167;-66
2023/06/15 08:39:21;;;;;;;5.70;3.10;;;;;;;26.76;100.00;99440.20;103622;1270;70141;-65
2023/06/15 08:41:49;;;;;;;7.40;3.30;;;;;;;26.72;100.00;99440.98;103609;1279;72476;-65
2023/06/15 08:44:18;;;;;;;6.00;3.20;;;;;;;26.69;100.00;99445.15;103780;1269;193148;-64
2023/06/15 08:46:47;;;;;;;8.40;3.60;;;;;;;26.62;100.00;99448.20;103816;1266;59700;-65
2023/06/15 08:49:14;;;;;;;10.10;3.20;;;;;;;26.69;100.00;99441.91;105742;1263;72013;-65
2023/06/15 08:51:42;;;;;;;;;;;;;;;26.85;100.00;99439.38;106343;1266;69142;-65
2023/06/15 08:54:10;;;;;;;9.40;3.30;;;;;;;26.94;100.00;99439.66;104113;1269;72226;-64
2023/06/15 08:56:38;;;;;;;;;;;;;;;26.99;100.00;99439.46;104407;1269;59780;-65
2023/06/15 08:59:08;;;;;;;11.50;3.90;;;;;;;26.98;100.00;99441.73;104019;1269;60233;-65
2023/06/15 09:01:40;;;;;;;;;;;;;;;26.89;100.00;99444.45;104204;1264;73185;-63
2023/06/15 09:04:08;;;;;;;8.70;3.20;;;;;;;26.87;100.00;99454.23;104056;1279;69122;-63
2023/06/15 09:06:36;;;;;;;9.60;3.30;;;;;;;26.82;100.00;99452.77;104748;1262;72433;-64
2023/06/15 09:09:04;;;;;;;11.20;3.40;;;;;;;26.79;100.00;99453.11;104047;1264;59799;-62
2023/06/15 09:11:44;;;;;;;5.10;3.20;;;;;;;26.74;100.00;99456.02;104245;1263;59896;-67
2023/06/15 09:14:12;;;;;;;5.00;3.20;;;;;;;26.64;100.00;99449.23;104420;1257;72073;-62
2023/06/15 09:16:40;;;;;;;6.60;3.60;;;;;;;26.59;100.00;99452.27;105128;1256;70454;-64
2023/06/15 09:19:16;;;;;;;6.80;3.00;;;;;;;26.54;100.00;99452.58;104302;1260;72609;-63
2023/06/15 09:21:51;;;;;;;8.00;2.70;;;;;;;26.41;100.00;99454.13;104381;1270;60239;-64
2023/06/15 09:24:22;;;;;;;4.00;3.10;;;;;;;26.33;100.00;99451.76;104600;1257;61308;-62
2023/06/15 09:26:50;;;;;;;8.40;3.30;;;;;;;26.28;100.00;99452.37;104860;1256;73499;-64
2023/06/15 09:29:18;;;;;;;6.40;3.60;;;;;;;26.22;100.00;99451.91;104480;1264;69421;-61
2023/06/15 09:31:46;;;;;;;7.50;3.20;;;;;;;26.15;100.00;99455.23;104584;1255;72356;-63
2023/06/15 09:34:13;;;;;;;;;;;;;;;26.16;100.00;99451.23;104904;1253;59721;-64
2023/06/15 09:36:44;;;;;;;6.90;2.90;;;;;;;26.16;100.00;99449.57;105192;1252;59842;-63
2023/06/15 09:39:13;;;;;;;4.20;3.00;;;;;;;26.13;100.00;99453.89;104917;1257;72949;-66
2023/06/15 09:41:51;;;;;;;3.70;2.70;;;;;;;26.12;100.00;99450.05;104374;1264;69341;-64
2023/06/15 09:44:21;;;;;;;9.00;3.10;;;;;;;26.16;100.00;99450.98;104398;1257;72356;-61
2023/06/15 09:46:51;;;;;;;5.60;3.00;;;;;;;26.17;100.00;99448.76;106967;1253;60700;-63
2023/06/15 09:49:23;;;;;;;7.80;3.60;;;;;;;26.21;100.00;99449.87;107142;1251;60137;-63
2023/06/15 09:51:51;;;;;;;9.50;3.30;;;;;;;26.27;100.00;99452.85;108421;1252;71902;-63
2023/06/15 09:54:22;;;;;;;5.40;3.10;;;;;;;26.38;100.00;99451.38;105166;1257;68257;-64
2023/06/15 09:56:51;;;;;;;7.60;3.30;;;;;;;26.48;100.00;99454.31;104843;1257;73338;-63
2023/06/15 09:59:20;;;;;;;6.60;3.10;;;;;;;26.52;100.00;99454.73;104958;1257;60180;-63
2023/06/15 10:01:50;;;;;;;7.40;3.60;;;;;;;26.57;100.00;99453.78;104730;1253;59685;-61
2023/06/15 10:04:19;;;;;;;5.00;3.60;;;;;;;26.59;100.00;99454.29;104947;1251;73313;-64
2023/06/15 10:06:55;;;;;;;9.00;3.50;;;;;;;26.60;100.00;99456.12;104382;1256;69504;-62
2023/06/15 10:09:28;;;;;;;9.90;3.30;;;;;;;26.65;100.00;99456.38;104629;1257;71860;-63
2023/06/15 10:12:01;;;;;;;6.60;3.30;;;;;;;26.62;100.00;99458.84;104302;1253;59882;-61
2023/06/15 10:14:34;;;;;;;8.40;3.30;;;;;;;26.53;100.00;99459.56;104513;1257;60760;-62
2023/06/15 10:17:04;;;;;;;4.90;3.20;;;;;;;26.50;100.00;99458.26;104487;1251;72268;-62
2023/06/15 10:19:32;;;;;;;9.00;3.00;;;;;;;26.46;100.00;99459.71;104582;1256;69044;-62
2023/06/15 10:22:00;;;;;;;8.40;3.40;;;;;;;26.47;100.00;99458.52;104327;1257;72356;-62
2023/06/15 10:24:28;;;;;;;4.20;3.10;;;;;;;26.43;100.00;99456.08;106082;1251;60218;-63
2023/06/15 10:26:56;;;;;;;8.60;3.30;;;;;;;26.46;100.00;99454.92;108045;1251;59041;-63
2023/06/15 10:29:34;;;;;;;8.60;2.80;;;;;;;26.53;100.00;99455.48;105861;1253;72915;-66
2023/06/15 10:32:09;;;;;;;4.90;2.50;;;;;;;26.59;100.00;99452.10;104633;1257;69102;-61
2023/06/15 10:34:50;;;;;;;6.00;2.90;;;;;;;26.70;100.00;99453.43;104571;1267;72066;-61
2023/06/15 11:43:20;;;;;;;12.00;3.30;;;;;;;26.66;100.00;99438.39;101497;1295;602437;-62
2023/06/15 11:45:48;;;;;;;5.90;3.00;;;;;;;27.34;100.00;99434.80;104008;1265;59987;-62
2023/06/15 11:48:16;;;;;;;6.80;3.30;;;;;;;27.46;99.22;99433.54;104041;1266;60656;-63
2023/06/15 11:50:43;;;;;;;8.00;3.40;;;;;;;27.46;98.65;99434.64;104086;1266;72923;-62
2023/06/15 11:53:16;;;;;;;9.10;3.50;;;;;;;27.51;94.69;99431.64;106681;1265;69285;-64
2023/06/15 11:55:47;;;;;;;4.90;2.90;;;;;;;27.59;93.87;99435.97;104233;1260;73425;-63
2023/06/15 11:58:15;;;;;;;5.30;2.70;;;;;;;27.80;93.86;99431.02;104444;1257;59365;-64
2023/06/15 12:00:42;;;;;;;;;;;;;;;27.89;89.27;99432.60;104820;1259;60711;-66
2023/06/15 12:03:11;;;;;;;6.30;3.00;;;;;;;27.90;85.64;99428.24;104213;1256;72947;-62
2023/06/15 12:05:39;;;;;;;6.90;3.30;;;;;;;27.96;82.77;99430.02;104464;1261;70178;-63
2023/06/15 12:08:11;;;;;;;6.60;2.70;;;;;;;27.95;79.01;99427.02;104616;1257;72422;-63
2023/06/15 12:10:38;;;;;;;5.30;3.10;;;;;;;28.07;77.91;99424.02;104341;1256;60053;-63
2023/06/15 12:13:12;;;;;;;11.40;3.50;;;;;;;28.21;77.21;99418.45;104205;1260;60694;-62
2023/06/15 12:15:45;;;;;;;4.40;2.80;;;;;;;28.41;81.84;99418.10;104210;1260;73802;-62
2023/06/15 12:18:13;;;;;;;5.80;2.80;;;;;;;28.67;79.22;99415.52;104107;1269;69552;-64
2023/06/15 12:20:41;;;;;;;5.10;2.80;;;;;;;28.81;75.94;99409.82;104325;1263;72916;-67
2023/06/15 12:23:09;;;;;;;;;;;;;;;28.94;73.67;99410.09;104741;1257;59811;-65
2023/06/15 12:25:42;;;;;;;4.60;3.10;;;;;;;29.05;75.28;99406.73;104500;1260;60265;-66
2023/06/15 12:28:20;;;;;;;9.90;3.20;;;;;;;29.16;73.85;99407.23;104320;1258;73973;-64
2023/06/15 12:30:49;;;;;;;8.00;2.80;;;;;;;29.17;68.31;99408.91;107933;1254;69162;-66
2023/06/15 12:33:30;;;;;;;5.30;2.60;;;;;;;29.08;68.84;99404.74;105480;1260;73030;-61
2023/06/15 12:35:58;;;;;;;5.50;3.00;;;;;;;29.22;70.29;99397.02;104754;1260;60740;-61
2023/06/15 12:38:27;;;;;;;8.00;2.90;;;;;;;29.35;71.57;99394.73;104538;1257;59768;-62
2023/06/15 12:40:56;;;;;;;10.50;2.80;;;;;;;29.40;69.16;99398.05;105584;1254;72812;-62
2023/06/15 12:43:26;;;;;;;5.80;3.00;;;;;;;29.36;67.20;99396.00;104611;1260;68555;-62